Time;durP1;ratioP1;P1;durP2;ratioP2;P2;SDS_P1;SDS_P2;PMS_P1;PMS_P2;Temp;Humidity;BMP_temperature;BMP_pressure;BME280_temperature;BME280_humidity;BME280_pressure;Samples;Min_cycle;Max_cycle;Signal;HPM_P1;HPM_P2
2021/06/23 00:02:08;;;;;;;5.47;2.40;;;15.90;99.90;;;;;;4954892;28;20170;-77
2021/06/23 00:04:33;;;;;;;1.83;1.73;;;15.90;99.90;;;;;;4948752;28;20171;-77
2021/06/23 00:06:59;;;;;;;3.03;2.83;;;15.90;99.90;;;;;;4943304;28;20202;-77
2021/06/23 00:09:24;;;;;;;4.63;1.87;;;15.90;99.90;;;;;;4944038;29;20174;-77
2021/06/23 00:11:52;;;;;;;1.77;1.33;;;16.00;99.90;;;;;;4952961;29;20195;-77
2021/06/23 00:14:19;;;;;;;3.20;1.87;;;15.90;99.90;;;;;;4954806;28;20228;-77
2021/06/23 00:16:45;;;;;;;3.33;2.30;;;15.90;99.90;;;;;;4954561;28;20425;-76
2021/06/23 00:19:11;;;;;;;1.90;1.27;;;15.90;99.90;;;;;;4945336;28;20461;-77
2021/06/23 00:21:37;;;;;;;3.23;2.73;;;15.90;99.90;;;;;;4947281;28;20470;-79
2021/06/23 00:24:04;;;;;;;3.20;1.50;;;15.90;99.90;;;;;;4956447;29;20445;-76
2021/06/23 00:26:32;;;;;;;2.00;1.90;;;15.90;99.90;;;;;;4953462;28;20433;-76
2021/06/23 00:28:57;;;;;;;1.43;1.33;;;15.90;99.90;;;;;;4955930;28;20806;-77
2021/06/23 00:31:23;;;;;;;2.03;1.20;;;15.90;99.90;;;;;;4953707;28;20450;-77
2021/06/23 00:33:50;;;;;;;2.60;2.10;;;15.90;99.90;;;;;;4953081;29;20264;-77
2021/06/23 00:36:15;;;;;;;3.10;2.80;;;15.90;99.90;;;;;;4955903;28;20174;-78
2021/06/23 00:38:41;;;;;;;1.83;1.73;;;15.90;99.90;;;;;;4952627;28;20452;-78
2021/06/23 00:41:07;;;;;;;1.43;1.33;;;15.90;99.90;;;;;;4954371;29;20659;-77
2021/06/23 00:43:32;;;;;;;1.47;1.37;;;15.80;99.90;;;;;;4954889;29;21043;-78
2021/06/23 00:45:58;;;;;;;1.23;1.13;;;15.80;99.90;;;;;;4946432;29;20225;-77
2021/06/23 00:48:29;;;;;;;4.63;2.37;;;15.80;99.90;;;;;;4955268;29;20206;-77
2021/06/23 00:50:57;;;;;;;4.47;1.30;;;15.80;99.90;;;;;;4955814;28;20193;-77
2021/06/23 00:53:24;;;;;;;3.33;1.57;;;15.80;99.90;;;;;;4958980;28;20457;-79
2021/06/23 00:55:53;;;;;;;2.50;2.30;;;15.80;99.90;;;;;;4954596;29;20422;-78
2021/06/23 00:58:19;;;;;;;4.77;4.53;;;15.80;99.90;;;;;;4949317;28;20444;-77
2021/06/23 01:00:45;;;;;;;1.80;1.70;;;15.70;99.90;;;;;;4952078;28;20506;-77
2021/06/23 01:03:11;;;;;;;3.43;2.13;;;15.70;99.90;;;;;;4955494;28;20504;-77
2021/06/23 01:05:38;;;;;;;1.67;1.57;;;15.70;99.90;;;;;;4955282;28;20221;-78
2021/06/23 01:08:07;;;;;;;5.23;1.90;;;15.70;99.90;;;;;;4954110;29;20441;-77
2021/06/23 01:10:34;;;;;;;1.57;1.47;;;15.70;99.90;;;;;;4951944;28;20484;-79
2021/06/23 01:13:16;;;;;;;2.50;2.27;;;15.70;99.90;;;;;;4955140;28;20826;-79
2021/06/23 01:15:43;;;;;;;1.50;0.93;;;15.70;99.90;;;;;;4958000;28;20412;-78
2021/06/23 01:18:10;;;;;;;2.60;1.00;;;15.70;99.90;;;;;;4957563;28;20446;-79
2021/06/23 01:20:42;;;;;;;1.77;1.23;;;15.70;99.90;;;;;;4959306;28;20441;-78
2021/06/23 01:23:07;;;;;;;1.97;1.77;;;15.70;99.90;;;;;;4957485;28;20417;-77
2021/06/23 01:25:33;;;;;;;1.03;0.93;;;15.70;99.90;;;;;;4957056;29;20508;-77
2021/06/23 01:27:59;;;;;;;2.20;1.23;;;15.60;99.90;;;;;;4956885;29;20195;-78
2021/06/23 01:30:24;;;;;;;2.40;2.20;;;15.70;99.90;;;;;;4958575;29;20587;-79
2021/06/23 01:32:50;;;;;;;1.20;1.10;;;15.60;99.90;;;;;;4961364;29;20174;-79
2021/06/23 01:35:16;;;;;;;1.57;1.47;;;15.60;99.90;;;;;;4960578;29;20170;-78
2021/06/23 01:37:42;;;;;;;1.23;1.10;;;15.70;99.90;;;;;;4960391;28;20193;-78
2021/06/23 01:40:08;;;;;;;1.57;1.00;;;15.70;99.90;;;;;;4954657;28;20170;-78
2021/06/23 01:42:34;;;;;;;4.10;3.23;;;15.70;99.90;;;;;;4960479;29;20911;-78
2021/06/23 01:45:00;;;;;;;0.90;0.77;;;15.70;99.90;;;;;;4960939;28;20428;-78
2021/06/23 01:47:26;;;;;;;3.17;2.30;;;15.70;99.90;;;;;;4957979;29;20453;-77
2021/06/23 01:49:52;;;;;;;0.87;0.67;;;15.70;99.90;;;;;;4945679;29;20444;-78
2021/06/23 01:52:17;;;;;;;1.57;1.47;;;15.70;99.90;;;;;;4945270;28;20202;-77
2021/06/23 01:54:43;;;;;;;1.50;1.20;;;15.70;99.90;;;;;;4957046;28;20182;-76
2021/06/23 01:57:13;;;;;;;1.67;1.53;;;15.60;99.90;;;;;;4955488;28;20193;-78
2021/06/23 01:59:39;;;;;;;2.00;1.10;;;15.60;99.90;;;;;;4959133;28;20206;-77
2021/06/23 02:02:24;;;;;;;1.20;0.97;;;15.60;99.90;;;;;;4959960;28;20485;-78
2021/06/23 02:05:16;;;;;;;6.10;1.77;;;15.60;99.90;;;;;;4961524;28;20404;-78
2021/06/23 02:07:57;;;;;;;3.53;3.23;;;15.60;99.90;;;;;;4975844;28;20449;-78
2021/06/23 02:10:50;;;;;;;4.27;1.10;;;15.60;99.90;;;;;;4960932;28;20480;-78
2021/06/23 02:13:38;;;;;;;1.90;1.80;;;15.60;99.90;;;;;;4961224;28;20413;-77
2021/06/23 02:16:08;;;;;;;2.13;1.33;;;15.60;99.90;;;;;;4960520;28;20409;-78
2021/06/23 02:18:34;;;;;;;1.73;1.33;;;15.60;99.90;;;;;;4956309;29;20461;-78
2021/06/23 02:21:02;;;;;;;3.00;2.50;;;15.60;99.90;;;;;;4959019;29;20418;-78
2021/06/23 02:23:29;;;;;;;1.87;1.30;;;15.60;99.90;;;;;;4960499;28;20205;-78
2021/06/23 02:25:55;;;;;;;1.90;1.40;;;15.60;99.90;;;;;;4956262;28;20428;-78
2021/06/23 02:28:22;;;;;;;2.17;1.73;;;15.60;99.90;;;;;;4954887;28;20442;-77
2021/06/23 02:30:49;;;;;;;1.00;0.90;;;15.60;99.90;;;;;;4955851;28;21182;-77
2021/06/23 02:33:15;;;;;;;4.70;3.17;;;15.60;99.90;;;;;;4955684;29;20418;-77
2021/06/23 02:35:41;;;;;;;2.13;1.10;;;15.60;99.90;;;;;;4939153;28;20422;-77
2021/06/23 02:38:07;;;;;;;4.00;2.30;;;15.60;99.90;;;;;;4952986;29;20442;-78
2021/06/23 02:40:33;;;;;;;1.43;1.33;;;15.60;99.90;;;;;;4945354;28;20187;-78
2021/06/23 02:43:00;;;;;;;1.30;1.20;;;15.60;99.90;;;;;;4959363;28;20265;-77
2021/06/23 02:45:27;;;;;;;1.33;1.23;;;15.60;99.90;;;;;;4955205;28;20525;-78
2021/06/23 02:47:53;;;;;;;2.03;1.63;;;15.60;99.90;;;;;;4952899;29;20528;-78
2021/06/23 02:50:19;;;;;;;2.10;1.90;;;15.60;99.90;;;;;;4947237;29;20787;-77
2021/06/23 02:52:45;;;;;;;1.50;1.40;;;15.60;99.90;;;;;;4946638;29;20484;-77
2021/06/23 02:55:19;;;;;;;1.17;1.07;;;15.60;99.90;;;;;;4955160;28;20509;-77
2021/06/23 02:57:44;;;;;;;1.10;1.00;;;15.60;99.90;;;;;;4955043;28;20882;-77
2021/06/23 03:00:11;;;;;;;1.73;1.00;;;15.60;99.90;;;;;;4953239;29;20426;-78
2021/06/23 03:02:36;;;;;;;6.30;2.90;;;15.60;99.90;;;;;;4939317;29;20211;-77
2021/06/23 03:05:02;;;;;;;1.17;1.07;;;15.60;99.90;;;;;;4949308;29;20465;-77
2021/06/23 03:07:28;;;;;;;1.40;1.30;;;15.60;99.90;;;;;;4950981;28;20636;-78
2021/06/23 03:10:08;;;;;;;2.73;2.10;;;15.60;99.90;;;;;;4942580;29;20175;-78
2021/06/23 03:12:34;;;;;;;1.63;1.50;;;15.60;99.90;;;;;;4956129;28;20186;-77
2021/06/23 03:15:00;;;;;;;1.03;0.93;;;15.60;99.90;;;;;;4953858;28;20428;-77
2021/06/23 03:17:26;;;;;;;1.90;1.70;;;15.60;99.90;;;;;;4951755;28;20443;-78
2021/06/23 03:19:52;;;;;;;1.07;0.90;;;15.60;99.90;;;;;;4960342;28;20174;-76
2021/06/23 03:22:18;;;;;;;2.67;2.47;;;15.60;99.90;;;;;;4956599;29;20469;-76
2021/06/23 03:24:44;;;;;;;1.50;1.17;;;15.60;99.90;;;;;;4944580;28;20436;-76
2021/06/23 03:27:09;;;;;;;2.40;1.60;;;15.50;99.90;;;;;;4944067;29;20446;-78
2021/06/23 03:29:36;;;;;;;2.80;2.60;;;15.60;99.90;;;;;;4954971;28;20560;-78
2021/06/23 03:32:07;;;;;;;1.30;0.87;;;15.50;99.90;;;;;;4955332;28;20198;-76
2021/06/23 03:34:33;;;;;;;1.30;1.20;;;15.50;99.90;;;;;;4952591;28;20453;-78
2021/06/23 03:36:58;;;;;;;3.57;1.90;;;15.50;99.90;;;;;;4938968;29;20423;-78
2021/06/23 03:39:24;;;;;;;2.23;2.07;;;15.50;99.90;;;;;;4946350;28;20687;-78
2021/06/23 03:41:50;;;;;;;1.43;1.33;;;15.60;99.90;;;;;;4939325;29;20197;-77
2021/06/23 03:44:15;;;;;;;2.30;2.10;;;15.60;99.90;;;;;;4956981;29;20540;-77
2021/06/23 03:46:41;;;;;;;3.70;1.90;;;15.60;99.90;;;;;;4955711;29;20179;-77
2021/06/23 03:49:06;;;;;;;1.20;1.00;;;15.60;99.90;;;;;;4957711;29;20252;-78
2021/06/23 03:51:33;;;;;;;1.93;1.83;;;15.60;99.90;;;;;;4947164;28;20233;-78
2021/06/23 03:53:58;;;;;;;1.53;1.43;;;15.60;99.90;;;;;;4957952;28;20313;-78
2021/06/23 03:56:24;;;;;;;1.90;1.80;;;15.60;99.90;;;;;;4955355;29;20473;-76
2021/06/23 03:58:49;;;;;;;1.33;1.17;;;15.60;99.90;;;;;;4954702;28;20198;-76
2021/06/23 04:01:15;;;;;;;0.70;0.60;;;15.60;99.90;;;;;;4955749;29;20214;-77
2021/06/23 04:03:41;;;;;;;1.20;1.10;;;15.60;99.90;;;;;;4954416;29;20178;-77
2021/06/23 04:06:07;;;;;;;0.70;0.70;;;15.60;99.90;;;;;;4955224;29;20174;-77
2021/06/23 04:08:32;;;;;;;4.80;3.30;;;15.60;99.90;;;;;;4950527;28;20355;-77
2021/06/23 04:10:58;;;;;;;1.70;1.30;;;15.60;99.90;;;;;;4948962;29;20194;-78
2021/06/23 04:13:23;;;;;;;2.80;2.60;;;15.60;99.90;;;;;;4950048;28;20167;-78
2021/06/23 04:15:49;;;;;;;1.10;1.00;;;15.60;99.90;;;;;;4944025;29;20182;-78
2021/06/23 04:18:14;;;;;;;4.50;1.83;;;15.60;99.90;;;;;;4942439;28;20209;-76
2021/06/23 04:20:40;;;;;;;1.43;1.27;;;15.60;99.90;;;;;;4936794;29;20171;-76
2021/06/23 04:23:05;;;;;;;1.47;1.37;;;15.60;99.90;;;;;;4947416;29;20170;-76
2021/06/23 04:25:31;;;;;;;1.47;1.23;;;15.70;99.90;;;;;;4946867;29;20208;-76
2021/06/23 04:27:57;;;;;;;2.90;2.70;;;15.70;99.90;;;;;;4955889;28;20190;-76
2021/06/23 04:30:22;;;;;;;1.40;1.17;;;15.70;99.90;;;;;;4953623;28;20179;-76
2021/06/23 04:32:48;;;;;;;4.17;3.80;;;15.70;99.90;;;;;;4955449;29;20205;-76
2021/06/23 04:35:14;;;;;;;1.43;1.33;;;15.70;99.90;;;;;;4954987;28;20637;-76
2021/06/23 04:37:42;;;;;;;1.83;1.73;;;15.70;99.90;;;;;;4944349;29;20714;-76
2021/06/23 04:40:11;;;;;;;1.80;1.70;;;15.80;99.90;;;;;;4954354;29;20265;-76
2021/06/23 04:42:37;;;;;;;1.10;0.90;;;15.70;99.90;;;;;;4953465;28;20430;-76
2021/06/23 04:45:05;;;;;;;1.83;1.63;;;15.80;99.90;;;;;;4954313;28;20537;-76
2021/06/23 04:47:31;;;;;;;1.80;1.27;;;15.70;99.90;;;;;;4952162;28;20434;-76
2021/06/23 04:49:57;;;;;;;3.17;2.13;;;15.80;99.90;;;;;;4955251;29;20477;-77
2021/06/23 04:52:22;;;;;;;1.97;1.20;;;15.70;99.90;;;;;;4948354;28;20206;-76
2021/06/23 04:54:48;;;;;;;1.67;1.57;;;15.70;99.90;;;;;;4951845;28;20175;-76
2021/06/23 04:57:14;;;;;;;1.70;1.60;;;15.80;99.90;;;;;;4948337;28;20206;-76
2021/06/23 04:59:39;;;;;;;2.90;2.70;;;15.80;99.90;;;;;;4939400;29;20418;-76
2021/06/23 05:02:05;;;;;;;3.43;3.20;;;15.70;99.90;;;;;;4951806;29;20200;-76
2021/06/23 05:04:31;;;;;;;0.80;0.80;;;15.70;99.90;;;;;;4938060;28;20182;-76
2021/06/23 05:06:56;;;;;;;2.13;2.03;;;15.70;99.90;;;;;;4947137;29;20178;-76
2021/06/23 05:09:22;;;;;;;1.57;0.90;;;15.80;99.90;;;;;;4954440;28;20220;-76
2021/06/23 05:11:47;;;;;;;1.90;1.33;;;15.80;99.90;;;;;;4952524;29;20675;-76
2021/06/23 05:14:13;;;;;;;1.83;1.73;;;15.80;99.90;;;;;;4949519;29;20174;-76
2021/06/23 05:16:40;;;;;;;0.90;0.90;;;15.80;99.90;;;;;;4943451;29;20207;-76
2021/06/23 05:19:06;;;;;;;3.20;2.97;;;15.80;99.90;;;;;;4933634;29;20217;-76
2021/06/23 05:21:33;;;;;;;2.63;1.03;;;15.80;99.90;;;;;;4945641;29;20430;-76
2021/06/23 05:24:00;;;;;;;2.00;1.90;;;15.80;99.90;;;;;;4953793;28;20357;-76
2021/06/23 05:26:25;;;;;;;2.67;1.47;;;15.80;99.90;;;;;;4945330;28;20466;-76
2021/06/23 05:28:51;;;;;;;1.37;1.27;;;15.90;99.90;;;;;;4953908;29;20948;-76
2021/06/23 05:31:16;;;;;;;2.40;2.13;;;15.90;99.90;;;;;;4945343;28;20202;-76
2021/06/23 05:33:42;;;;;;;2.13;1.00;;;15.90;99.90;;;;;;4954536;29;20175;-76
2021/06/23 05:36:07;;;;;;;2.07;1.50;;;16.00;99.90;;;;;;4953747;29;20178;-76
2021/06/23 05:38:33;;;;;;;2.73;1.13;;;16.10;99.90;;;;;;4954572;29;20190;-76
2021/06/23 05:40:59;;;;;;;2.80;1.77;;;16.10;99.90;;;;;;4940460;29;20258;-76
2021/06/23 05:43:24;;;;;;;1.77;1.67;;;16.20;99.90;;;;;;4935638;29;20194;-76
2021/06/23 05:45:50;;;;;;;2.03;1.83;;;16.20;99.90;;;;;;4947729;29;20273;-76
2021/06/23 05:48:15;;;;;;;4.00;3.03;;;16.30;99.90;;;;;;4944277;28;20572;-76
2021/06/23 05:50:42;;;;;;;4.47;2.10;;;16.40;99.90;;;;;;4935824;29;20171;-76
2021/06/23 05:53:07;;;;;;;3.67;2.90;;;16.40;99.90;;;;;;4940584;29;20186;-76
2021/06/23 05:55:33;;;;;;;1.03;0.93;;;16.50;99.90;;;;;;4951605;29;20425;-76
2021/06/23 05:57:58;;;;;;;1.73;1.63;;;16.50;99.90;;;;;;4950809;28;20225;-76
2021/06/23 06:00:24;;;;;;;3.97;2.53;;;16.60;99.90;;;;;;4952739;29;20217;-76
2021/06/23 06:02:50;;;;;;;2.90;1.93;;;16.60;99.90;;;;;;4935927;29;20262;-76
2021/06/23 06:05:16;;;;;;;2.30;2.13;;;16.60;99.90;;;;;;4948874;28;20433;-76
2021/06/23 06:07:42;;;;;;;1.13;1.03;;;16.60;99.90;;;;;;4957092;28;20830;-76
2021/06/23 06:10:10;;;;;;;1.10;1.00;;;16.60;99.90;;;;;;4947163;28;20185;-76
2021/06/23 06:12:36;;;;;;;1.90;1.80;;;16.50;99.90;;;;;;4956899;28;20576;-75
2021/06/23 06:15:02;;;;;;;4.10;1.87;;;16.60;99.90;;;;;;4955240;29;20437;-75
2021/06/23 06:17:27;;;;;;;2.40;2.13;;;16.60;99.90;;;;;;4956665;28;20445;-76
2021/06/23 06:19:53;;;;;;;2.70;2.50;;;16.60;99.90;;;;;;4952874;28;20943;-76
2021/06/23 06:22:18;;;;;;;1.10;0.93;;;16.60;99.90;;;;;;4957306;28;20178;-76
2021/06/23 06:24:44;;;;;;;3.20;3.00;;;16.60;99.90;;;;;;4951267;29;20177;-76
2021/06/23 06:27:09;;;;;;;1.80;1.17;;;16.70;99.90;;;;;;4941488;29;20237;-76
2021/06/23 06:29:36;;;;;;;1.73;1.50;;;16.70;99.90;;;;;;4939386;29;20195;-76
2021/06/23 06:32:02;;;;;;;3.40;3.17;;;16.70;99.90;;;;;;4956879;28;20252;-76
2021/06/23 06:34:27;;;;;;;3.13;2.20;;;16.80;99.90;;;;;;4957117;28;20426;-76
2021/06/23 06:36:53;;;;;;;2.50;2.30;;;16.80;99.90;;;;;;4957000;29;20181;-76
2021/06/23 06:39:18;;;;;;;0.80;0.80;;;16.70;99.90;;;;;;4940377;28;20584;-76
2021/06/23 06:41:44;;;;;;;1.53;1.37;;;16.80;99.90;;;;;;4955193;29;20695;-76
2021/06/23 06:44:09;;;;;;;1.30;1.13;;;16.70;99.90;;;;;;4955021;28;20185;-76
2021/06/23 06:46:36;;;;;;;1.53;1.43;;;16.80;99.90;;;;;;4955914;29;20261;-76
2021/06/23 06:49:03;;;;;;;1.13;1.07;;;16.80;99.90;;;;;;4957417;28;20400;-76
2021/06/23 06:51:29;;;;;;;3.33;3.03;;;16.80;99.90;;;;;;4952470;29;20458;-76
2021/06/23 06:53:54;;;;;;;1.70;1.60;;;16.80;99.90;;;;;;4956241;29;20422;-76
2021/06/23 06:56:20;;;;;;;2.60;2.13;;;16.90;99.90;;;;;;4959458;29;20167;-78
2021/06/23 06:58:45;;;;;;;2.27;1.57;;;16.90;99.90;;;;;;4960974;28;20190;-78
2021/06/23 07:01:11;;;;;;;2.47;2.03;;;17.00;99.90;;;;;;4960677;28;20178;-78
2021/06/23 07:03:36;;;;;;;1.90;1.77;;;17.00;99.90;;;;;;4954518;29;20190;-78
2021/06/23 07:06:02;;;;;;;3.53;2.83;;;17.00;99.90;;;;;;4957230;29;20186;-79
2021/06/23 07:08:27;;;;;;;1.67;1.27;;;17.00;99.90;;;;;;4961034;28;20194;-78
2021/06/23 07:10:53;;;;;;;2.47;1.97;;;17.10;99.90;;;;;;4960665;28;20198;-77
2021/06/23 07:13:18;;;;;;;6.80;1.93;;;17.10;99.90;;;;;;4958898;28;21430;-78
2021/06/23 07:15:44;;;;;;;1.57;1.47;;;17.20;99.90;;;;;;4960582;28;20298;-78
2021/06/23 07:18:09;;;;;;;3.23;2.00;;;17.20;99.90;;;;;;4958911;28;20221;-78
2021/06/23 07:20:35;;;;;;;2.37;1.83;;;17.10;99.90;;;;;;4944037;29;20194;-78
2021/06/23 07:23:01;;;;;;;1.43;1.33;;;17.10;99.90;;;;;;4951604;29;20177;-79
2021/06/23 07:25:26;;;;;;;2.70;2.33;;;17.10;99.90;;;;;;4947456;29;20174;-78
2021/06/23 07:27:52;;;;;;;2.00;1.90;;;17.10;99.90;;;;;;4950358;29;20194;-78
2021/06/23 07:30:18;;;;;;;3.97;3.67;;;17.10;99.90;;;;;;4959532;29;20257;-78
2021/06/23 07:37:54;;;;;;;2.73;1.60;;;17.20;99.90;;;;;;4957429;29;20206;-78
2021/06/23 07:40:28;;;;;;;1.87;1.67;;;17.20;99.90;;;;;;4960128;28;20426;-78
2021/06/23 07:42:54;;;;;;;1.90;1.60;;;17.20;99.90;;;;;;4959011;28;20591;-78
2021/06/23 07:45:19;;;;;;;0.80;0.70;;;17.20;99.90;;;;;;4960220;28;20418;-78
2021/06/23 07:47:45;;;;;;;2.27;2.07;;;17.20;99.90;;;;;;4957882;28;20293;-78
2021/06/23 07:50:12;;;;;;;0.97;0.97;;;17.30;99.90;;;;;;4960461;28;20178;-78
2021/06/23 08:09:13;;;;;;;5.03;2.93;;;17.20;99.90;;;;;;4960396;29;20474;-79
2021/06/23 08:11:41;;;;;;;1.50;1.20;;;17.20;99.90;;;;;;4960075;28;20478;-78
2021/06/23 08:14:06;;;;;;;4.00;1.90;;;17.30;99.90;;;;;;4958390;28;20683;-78
2021/06/23 08:16:33;;;;;;;3.43;2.57;;;17.30;99.90;;;;;;4959800;28;20780;-78
2021/06/23 08:18:58;;;;;;;1.73;1.63;;;17.30;99.90;;;;;;4971946;28;20206;-78
2021/06/23 08:21:24;;;;;;;2.63;1.33;;;17.30;99.90;;;;;;4957703;28;20875;-79
2021/06/23 08:23:50;;;;;;;1.60;1.30;;;17.30;99.90;;;;;;4946348;29;20171;-79
2021/06/23 08:26:16;;;;;;;3.73;3.43;;;17.20;99.90;;;;;;4957444;28;20454;-78
2021/06/23 08:28:41;;;;;;;1.80;1.70;;;17.20;99.90;;;;;;4947085;29;20205;-79
2021/06/23 08:31:07;;;;;;;1.13;0.97;;;17.20;99.90;;;;;;4958221;28;20198;-79
2021/06/23 08:33:32;;;;;;;2.73;1.97;;;17.20;99.90;;;;;;4956744;29;20185;-78
2021/06/23 08:35:58;;;;;;;1.60;1.43;;;17.30;99.90;;;;;;4957737;29;20526;-78
2021/06/23 08:38:24;;;;;;;2.33;1.60;;;17.30;99.90;;;;;;4946804;29;20201;-77
2021/06/23 08:40:50;;;;;;;1.63;1.33;;;17.40;99.90;;;;;;4955970;28;20190;-78
2021/06/23 08:43:17;;;;;;;1.27;1.17;;;17.40;99.90;;;;;;4956025;28;20175;-78
2021/06/23 08:45:43;;;;;;;1.63;1.53;;;17.40;99.90;;;;;;4956894;28;20430;-77
2021/06/23 08:48:10;;;;;;;3.00;1.53;;;17.40;99.90;;;;;;4956400;28;20461;-78
2021/06/23 08:50:36;;;;;;;1.13;1.00;;;17.40;99.90;;;;;;4958397;28;20180;-77
2021/06/23 08:53:02;;;;;;;1.30;0.93;;;17.30;99.90;;;;;;4958157;28;20548;-79
2021/06/23 08:55:28;;;;;;;1.23;0.80;;;17.30;99.90;;;;;;4955695;29;20965;-78
2021/06/23 08:57:54;;;;;;;1.13;1.00;;;17.30;99.90;;;;;;4958835;29;20473;-78
2021/06/23 09:00:24;;;;;;;1.90;1.50;;;17.30;99.90;;;;;;4956620;29;20212;-78
2021/06/23 09:02:50;;;;;;;4.60;2.37;;;17.40;99.90;;;;;;4949943;28;20174;-78
2021/06/23 09:05:17;;;;;;;2.00;1.80;;;17.40;99.90;;;;;;4956580;28;20435;-78
2021/06/23 09:07:48;;;;;;;1.63;1.50;;;17.40;99.90;;;;;;4961481;28;20226;-78
2021/06/23 09:10:23;;;;;;;1.97;1.77;;;17.40;99.90;;;;;;4952089;28;20452;-78
2021/06/23 09:13:01;;;;;;;3.23;2.00;;;17.50;99.90;;;;;;4956723;29;20465;-78
2021/06/23 09:15:45;;;;;;;4.07;3.73;;;17.50;99.90;;;;;;4956895;29;20421;-78
2021/06/23 09:18:17;;;;;;;1.63;1.17;;;17.40;99.90;;;;;;4953001;28;20443;-78
2021/06/23 09:20:44;;;;;;;2.13;1.53;;;17.40;99.90;;;;;;4945638;29;20430;-78
2021/06/23 09:23:10;;;;;;;3.97;1.20;;;17.40;99.90;;;;;;4953130;29;20422;-77
2021/06/23 09:25:38;;;;;;;1.77;1.10;;;17.40;99.90;;;;;;4955029;28;20411;-78
2021/06/23 09:28:12;;;;;;;2.23;2.10;;;17.50;99.90;;;;;;4960444;28;20437;-78
2021/06/23 09:30:44;;;;;;;1.73;1.63;;;17.60;99.90;;;;;;4958280;28;20418;-78
2021/06/23 09:33:15;;;;;;;3.90;1.63;;;17.60;99.90;;;;;;4957984;29;20477;-78
2021/06/23 09:36:00;;;;;;;5.27;4.87;;;17.60;99.90;;;;;;4956003;29;20517;-78
2021/06/23 09:38:35;;;;;;;1.00;0.90;;;17.70;99.90;;;;;;4946931;28;20431;-78
2021/06/23 09:41:01;;;;;;;4.30;4.10;;;17.90;99.90;;;;;;4943053;29;20956;-78
2021/06/23 09:43:39;;;;;;;8.77;3.57;;;18.00;99.90;;;;;;4952522;29;20789;-77
2021/06/23 09:46:17;;;;;;;1.53;1.40;;;18.10;99.90;;;;;;4961002;29;20425;-78
2021/06/23 09:48:43;;;;;;;2.03;0.90;;;18.20;99.90;;;;;;4946817;28;20493;-78
2021/06/23 09:51:14;;;;;;;1.40;1.23;;;18.20;99.90;;;;;;4953855;29;20453;-77
2021/06/23 09:53:40;;;;;;;2.87;1.90;;;18.30;99.90;;;;;;4957947;28;20449;-78
2021/06/23 09:56:31;;;;;;;3.63;2.83;;;18.40;99.90;;;;;;4946562;29;20431;-77
2021/06/23 09:58:58;;;;;;;2.37;1.30;;;18.60;99.90;;;;;;4954209;28;20194;-79
2021/06/23 10:01:25;;;;;;;1.90;1.27;;;18.60;99.90;;;;;;4945626;28;20426;-78
2021/06/23 10:03:57;;;;;;;2.60;2.40;;;18.70;99.90;;;;;;4950197;29;20824;-78
2021/06/23 10:06:30;;;;;;;1.97;1.70;;;18.70;99.90;;;;;;4950006;29;20481;-78
2021/06/23 10:09:20;;;;;;;3.47;3.17;;;18.70;99.90;;;;;;4963904;28;20460;-78
2021/06/23 10:11:47;;;;;;;1.57;1.20;;;18.90;99.90;;;;;;4961844;28;20869;-78
2021/06/23 10:14:13;;;;;;;2.40;2.20;;;19.10;99.90;;;;;;4960611;28;20465;-78
2021/06/23 10:16:39;;;;;;;2.60;1.77;;;19.20;99.90;;;;;;4960171;28;20452;-79
2021/06/23 10:19:08;;;;;;;2.43;1.73;;;19.20;99.90;;;;;;4959911;29;20449;-79
2021/06/23 10:21:36;;;;;;;1.60;1.50;;;19.40;99.90;;;;;;4961767;29;20977;-78
2021/06/23 10:24:04;;;;;;;3.47;1.90;;;19.40;99.90;;;;;;4960698;28;20422;-78
2021/06/23 10:26:30;;;;;;;1.03;0.93;;;19.40;99.90;;;;;;4951812;28;20427;-79
2021/06/23 10:28:57;;;;;;;3.67;1.67;;;19.50;99.90;;;;;;4951798;28;20831;-78
2021/06/23 10:31:25;;;;;;;2.30;1.53;;;19.60;99.90;;;;;;4959741;29;20560;-78
2021/06/23 10:33:51;;;;;;;1.97;1.10;;;19.60;99.90;;;;;;4960993;29;20421;-79
2021/06/23 10:36:21;;;;;;;3.10;2.53;;;19.60;99.90;;;;;;4955376;29;20418;-79
2021/06/23 10:38:49;;;;;;;2.07;1.97;;;19.70;99.90;;;;;;4960326;28;20456;-79
2021/06/23 10:41:16;;;;;;;1.70;1.57;;;19.70;99.90;;;;;;4942939;29;20419;-78
2021/06/23 10:43:43;;;;;;;2.17;2.07;;;19.80;99.90;;;;;;4946033;29;20426;-79
2021/06/23 10:46:10;;;;;;;3.90;2.83;;;19.80;99.90;;;;;;4959276;29;20775;-79
2021/06/23 10:48:57;;;;;;;3.60;3.30;;;19.80;99.90;;;;;;4960717;29;20445;-77
2021/06/23 10:51:27;;;;;;;2.07;1.20;;;19.90;99.90;;;;;;4958089;28;20978;-78
2021/06/23 10:53:53;;;;;;;3.03;2.50;;;19.90;99.90;;;;;;4962961;28;20572;-78
2021/06/23 10:56:43;;;;;;;4.33;2.30;;;20.00;99.90;;;;;;4956959;28;20938;-78
2021/06/23 10:59:34;;;;;;;1.53;1.43;;;20.00;99.90;;;;;;4957411;28;20366;-78
2021/06/23 11:02:09;;;;;;;1.80;1.67;;;20.10;99.90;;;;;;4956912;28;20453;-78
2021/06/23 11:05:01;;;;;;;4.70;2.47;;;20.00;99.90;;;;;;4947425;29;20968;-78
2021/06/23 11:07:59;;;;;;;3.00;2.17;;;19.90;99.90;;;;;;4940980;29;20506;-78
2021/06/23 11:10:45;;;;;;;1.53;1.40;;;19.80;99.90;;;;;;4930754;29;20472;-78
2021/06/23 11:13:21;;;;;;;1.60;1.50;;;19.80;99.90;;;;;;4956591;29;20967;-78
2021/06/23 11:15:49;;;;;;;2.27;1.83;;;19.90;99.90;;;;;;4956455;28;20426;-78
2021/06/23 11:18:37;;;;;;;5.40;3.93;;;20.00;99.90;;;;;;4954593;28;20466;-78
2021/06/23 11:21:21;;;;;;;3.77;2.90;;;20.10;99.90;;;;;;4952561;28;20422;-78
2021/06/23 11:23:54;;;;;;;2.17;1.97;;;20.40;99.90;;;;;;4949398;28;20416;-78
2021/06/23 11:26:22;;;;;;;2.50;2.27;;;20.50;99.90;;;;;;4955971;28;20412;-78
2021/06/23 11:29:11;;;;;;;6.13;4.37;;;20.70;99.90;;;;;;4955697;28;20442;-78
2021/06/23 11:31:46;;;;;;;2.23;1.70;;;20.90;99.90;;;;;;4955206;28;20497;-78
2021/06/23 11:34:32;;;;;;;3.77;2.13;;;21.10;99.90;;;;;;4952551;28;20421;-78
2021/06/23 11:36:57;;;;;;;2.23;2.03;;;21.00;99.90;;;;;;4953516;29;20425;-78
2021/06/23 11:39:23;;;;;;;4.50;2.90;;;21.00;99.90;;;;;;4956779;28;20402;-79
2021/06/23 11:41:49;;;;;;;3.67;3.37;;;21.10;99.90;;;;;;4957901;28;20528;-78
2021/06/23 11:44:14;;;;;;;2.27;2.07;;;21.00;99.90;;;;;;4956386;29;20555;-78
2021/06/23 11:46:40;;;;;;;1.40;1.30;;;20.90;99.90;;;;;;4955344;28;20189;-78
2021/06/23 11:49:05;;;;;;;1.93;1.70;;;20.70;99.90;;;;;;4956721;29;20253;-79
2021/06/23 11:51:31;;;;;;;3.40;3.10;;;20.80;99.90;;;;;;4955765;29;20730;-79
2021/06/23 11:53:56;;;;;;;1.67;1.53;;;20.80;99.90;;;;;;4958401;28;20174;-78
2021/06/23 11:56:22;;;;;;;3.30;3.13;;;20.70;99.90;;;;;;4952744;28;20205;-78
2021/06/23 11:58:47;;;;;;;2.73;2.63;;;20.70;99.90;;;;;;4947810;29;20569;-79
2021/06/23 12:01:13;;;;;;;2.10;1.93;;;20.80;99.90;;;;;;4941284;29;20179;-79
2021/06/23 12:03:38;;;;;;;2.17;1.70;;;20.90;99.90;;;;;;4955604;28;20201;-79
2021/06/23 12:06:05;;;;;;;3.07;2.87;;;21.00;99.90;;;;;;4948718;29;20210;-78
2021/06/23 12:08:30;;;;;;;2.03;1.87;;;21.10;99.90;;;;;;4957767;28;20682;-78
2021/06/23 12:10:56;;;;;;;2.30;1.97;;;21.10;99.90;;;;;;4957948;28;20422;-78
2021/06/23 12:13:22;;;;;;;2.37;2.27;;;21.20;99.90;;;;;;4958080;29;20174;-78
2021/06/23 12:15:48;;;;;;;1.83;1.50;;;21.20;99.90;;;;;;4958292;28;20683;-79
2021/06/23 12:18:13;;;;;;;2.57;2.10;;;21.30;99.90;;;;;;4958020;28;20454;-78
2021/06/23 12:20:40;;;;;;;3.07;1.70;;;21.20;99.90;;;;;;4957248;29;20201;-79
2021/06/23 12:23:09;;;;;;;2.73;1.63;;;21.30;99.90;;;;;;4953499;29;20191;-79
2021/06/23 12:25:40;;;;;;;1.87;1.77;;;21.30;99.90;;;;;;4953831;28;20425;-78
2021/06/23 12:28:07;;;;;;;1.63;1.53;;;21.30;99.90;;;;;;4943334;29;20481;-78
2021/06/23 12:30:34;;;;;;;2.33;1.90;;;21.20;99.90;;;;;;4935282;29;20919;-79
2021/06/23 12:33:03;;;;;;;1.90;1.30;;;21.20;99.90;;;;;;4946723;29;20464;-79
2021/06/23 12:35:29;;;;;;;3.63;3.33;;;21.40;99.90;;;;;;4952916;29;20437;-78
2021/06/23 12:37:55;;;;;;;2.50;2.17;;;21.50;99.90;;;;;;4955979;28;20812;-77
2021/06/23 12:40:21;;;;;;;2.43;2.23;;;21.70;99.90;;;;;;4956707;28;20445;-79
2021/06/23 12:42:47;;;;;;;2.10;1.90;;;21.70;99.90;;;;;;4955748;28;20887;-78
2021/06/23 12:45:13;;;;;;;2.00;1.90;;;21.80;99.90;;;;;;4958396;29;20430;-79
2021/06/23 12:47:38;;;;;;;3.27;3.03;;;21.70;99.90;;;;;;4957048;29;20226;-79
2021/06/23 12:50:06;;;;;;;2.97;2.77;;;21.80;99.90;;;;;;4956016;29;20182;-78
2021/06/23 12:52:31;;;;;;;3.73;3.43;;;21.70;99.90;;;;;;4959754;28;20298;-78
2021/06/23 12:54:57;;;;;;;5.37;1.63;;;21.50;99.90;;;;;;4957329;29;20485;-80
2021/06/23 12:57:22;;;;;;;1.80;1.70;;;21.40;99.90;;;;;;4946527;29;20199;-79
2021/06/23 12:59:48;;;;;;;3.77;1.30;;;21.40;99.90;;;;;;4956662;29;20182;-79
2021/06/23 13:02:14;;;;;;;3.00;2.33;;;21.40;99.90;;;;;;4953639;29;20197;-78
2021/06/23 13:04:41;;;;;;;2.47;2.17;;;21.60;99.90;;;;;;4950849;29;20185;-78
2021/06/23 13:07:07;;;;;;;4.53;3.13;;;21.80;99.90;;;;;;4952273;28;20253;-77
2021/06/23 13:09:33;;;;;;;2.03;1.90;;;21.90;99.90;;;;;;4951150;28;20486;-78
2021/06/23 13:12:00;;;;;;;1.40;1.30;;;22.10;99.90;;;;;;4939476;28;20473;-78
2021/06/23 13:14:26;;;;;;;2.60;1.73;;;22.30;99.90;;;;;;4967703;28;20170;-79